sensor_id;sensor_type;location;lat;lon;timestamp;P1;durP1;ratioP1;P2;durP2;ratioP2
34892;SDS011;21106;52.240;20.902;2023-09-18T00:04:39;5.90;;;4.70;;
34892;SDS011;21106;52.240;20.902;2023-09-18T00:10:06;5.60;;;3.70;;
34892;SDS011;21106;52.240;20.902;2023-09-18T00:15:32;10.90;;;4.60;;
34892;SDS011;21106;52.240;20.902;2023-09-18T00:20:59;6.20;;;4.90;;
34892;SDS011;21106;52.240;20.902;2023-09-18T00:26:25;5.30;;;4.50;;
34892;SDS011;21106;52.240;20.902;2023-09-18T00:31:53;6.70;;;4.10;;
34892;SDS011;21106;52.240;20.902;2023-09-18T00:37:19;4.60;;;4.00;;
34892;SDS011;21106;52.240;20.902;2023-09-18T00:42:46;5.60;;;4.60;;
34892;SDS011;21106;52.240;20.902;2023-09-18T00:48:12;5.30;;;4.50;;
34892;SDS011;21106;52.240;20.902;2023-09-18T00:53:42;6.00;;;5.00;;
34892;SDS011;21106;52.240;20.902;2023-09-18T00:59:09;9.00;;;5.40;;
34892;SDS011;21106;52.240;20.902;2023-09-18T01:04:36;7.90;;;5.00;;
34892;SDS011;21106;52.240;20.902;2023-09-18T01:10:03;6.10;;;4.70;;
34892;SDS011;21106;52.240;20.902;2023-09-18T01:15:31;7.70;;;5.20;;
34892;SDS011;21106;52.240;20.902;2023-09-18T01:20:59;7.10;;;5.30;;
34892;SDS011;21106;52.240;20.902;2023-09-18T01:26:25;8.00;;;5.50;;
34892;SDS011;21106;52.240;20.902;2023-09-18T01:31:52;6.90;;;5.50;;
34892;SDS011;21106;52.240;20.902;2023-09-18T01:37:20;9.00;;;5.90;;
34892;SDS011;21106;52.240;20.902;2023-09-18T01:42:47;6.40;;;5.70;;
34892;SDS011;21106;52.240;20.902;2023-09-18T01:48:13;7.20;;;5.40;;
34892;SDS011;21106;52.240;20.902;2023-09-18T01:53:40;9.20;;;6.20;;
34892;SDS011;21106;52.240;20.902;2023-09-18T01:59:06;9.60;;;5.80;;
34892;SDS011;21106;52.240;20.902;2023-09-18T02:04:33;8.40;;;5.90;;
34892;SDS011;21106;52.240;20.902;2023-09-18T02:09:59;8.90;;;5.90;;
34892;SDS011;21106;52.240;20.902;2023-09-18T02:15:26;6.80;;;5.60;;
34892;SDS011;21106;52.240;20.902;2023-09-18T02:20:52;6.80;;;5.60;;
34892;SDS011;21106;52.240;20.902;2023-09-18T02:26:19;7.10;;;5.30;;
34892;SDS011;21106;52.240;20.902;2023-09-18T02:31:46;6.30;;;5.50;;
34892;SDS011;21106;52.240;20.902;2023-09-18T02:37:12;8.40;;;5.70;;
34892;SDS011;21106;52.240;20.902;2023-09-18T02:42:39;7.20;;;5.60;;
34892;SDS011;21106;52.240;20.902;2023-09-18T02:48:06;6.20;;;5.20;;
34892;SDS011;21106;52.240;20.902;2023-09-18T02:53:32;9.10;;;5.90;;
34892;SDS011;21106;52.240;20.902;2023-09-18T02:58:59;11.20;;;5.80;;
34892;SDS011;21106;52.240;20.902;2023-09-18T03:04:26;8.30;;;6.30;;
34892;SDS011;21106;52.240;20.902;2023-09-18T03:09:54;8.20;;;6.20;;
34892;SDS011;21106;52.240;20.902;2023-09-18T03:15:21;9.90;;;6.10;;
34892;SDS011;21106;52.240;20.902;2023-09-18T03:20:47;8.50;;;6.90;;
34892;SDS011;21106;52.240;20.902;2023-09-18T03:26:14;8.90;;;6.60;;
34892;SDS011;21106;52.240;20.902;2023-09-18T03:31:41;8.10;;;6.30;;
34892;SDS011;21106;52.240;20.902;2023-09-18T03:37:08;9.90;;;6.30;;
34892;SDS011;21106;52.240;20.902;2023-09-18T03:42:35;9.70;;;6.70;;
34892;SDS011;21106;52.240;20.902;2023-09-18T03:48:02;9.60;;;6.50;;
34892;SDS011;21106;52.240;20.902;2023-09-18T03:53:29;8.20;;;6.30;;
34892;SDS011;21106;52.240;20.902;2023-09-18T03:58:56;9.30;;;6.20;;
34892;SDS011;21106;52.240;20.902;2023-09-18T04:04:24;8.50;;;7.20;;
34892;SDS011;21106;52.240;20.902;2023-09-18T04:09:51;12.10;;;7.60;;
34892;SDS011;21106;52.240;20.902;2023-09-18T04:15:18;12.20;;;7.40;;
34892;SDS011;21106;52.240;20.902;2023-09-18T04:20:46;8.60;;;7.50;;
34892;SDS011;21106;52.240;20.902;2023-09-18T04:26:13;11.70;;;7.70;;
34892;SDS011;21106;52.240;20.902;2023-09-18T04:31:40;11.60;;;8.00;;
34892;SDS011;21106;52.240;20.902;2023-09-18T04:37:07;9.00;;;8.00;;
34892;SDS011;21106;52.240;20.902;2023-09-18T04:42:33;9.60;;;7.50;;
34892;SDS011;21106;52.240;20.902;2023-09-18T04:48:00;14.90;;;8.10;;
34892;SDS011;21106;52.240;20.902;2023-09-18T04:53:27;8.50;;;7.20;;
34892;SDS011;21106;52.240;20.902;2023-09-18T04:58:53;15.00;;;9.10;;
34892;SDS011;21106;52.240;20.902;2023-09-18T05:04:20;19.40;;;9.20;;
34892;SDS011;21106;52.240;20.902;2023-09-18T05:09:47;14.40;;;9.20;;
34892;SDS011;21106;52.240;20.902;2023-09-18T05:15:13;15.40;;;8.00;;
34892;SDS011;21106;52.240;20.902;2023-09-18T05:20:40;10.80;;;8.20;;
34892;SDS011;21106;52.240;20.902;2023-09-18T05:26:07;13.10;;;9.20;;
34892;SDS011;21106;52.240;20.902;2023-09-18T05:31:33;12.70;;;9.40;;
34892;SDS011;21106;52.240;20.902;2023-09-18T05:37:00;12.10;;;8.40;;
34892;SDS011;21106;52.240;20.902;2023-09-18T05:42:26;10.70;;;8.30;;
34892;SDS011;21106;52.240;20.902;2023-09-18T05:47:54;11.10;;;8.70;;
34892;SDS011;21106;52.240;20.902;2023-09-18T05:53:27;13.50;;;9.40;;
34892;SDS011;21106;52.240;20.902;2023-09-18T05:58:54;15.50;;;9.30;;
34892;SDS011;21106;52.240;20.902;2023-09-18T06:04:21;19.50;;;9.40;;
34892;SDS011;21106;52.240;20.902;2023-09-18T06:09:49;13.00;;;9.30;;
34892;SDS011;21106;52.240;20.902;2023-09-18T06:15:16;16.10;;;10.00;;
34892;SDS011;21106;52.240;20.902;2023-09-18T06:20:42;14.80;;;9.30;;
34892;SDS011;21106;52.240;20.902;2023-09-18T06:26:11;12.80;;;9.40;;
34892;SDS011;21106;52.240;20.902;2023-09-18T06:31:38;14.00;;;9.60;;
34892;SDS011;21106;52.240;20.902;2023-09-18T06:37:05;13.80;;;9.90;;
34892;SDS011;21106;52.240;20.902;2023-09-18T06:42:33;11.90;;;9.90;;
34892;SDS011;21106;52.240;20.902;2023-09-18T06:48:01;12.50;;;10.10;;
34892;SDS011;21106;52.240;20.902;2023-09-18T06:53:28;15.10;;;9.30;;
34892;SDS011;21106;52.240;20.902;2023-09-18T06:58:55;16.50;;;9.40;;
34892;SDS011;21106;52.240;20.902;2023-09-18T07:04:21;11.70;;;8.10;;
34892;SDS011;21106;52.240;20.902;2023-09-18T07:09:48;12.50;;;8.60;;
34892;SDS011;21106;52.240;20.902;2023-09-18T07:15:15;16.20;;;8.50;;
34892;SDS011;21106;52.240;20.902;2023-09-18T07:20:41;12.60;;;7.70;;
34892;SDS011;21106;52.240;20.902;2023-09-18T07:26:08;18.40;;;7.90;;
34892;SDS011;21106;52.240;20.902;2023-09-18T07:31:34;11.60;;;7.80;;
34892;SDS011;21106;52.240;20.902;2023-09-18T07:37:01;11.70;;;8.00;;
34892;SDS011;21106;52.240;20.902;2023-09-18T07:42:28;18.10;;;8.60;;
34892;SDS011;21106;52.240;20.902;2023-09-18T07:47:54;13.80;;;8.00;;
34892;SDS011;21106;52.240;20.902;2023-09-18T07:53:21;13.10;;;7.60;;
34892;SDS011;21106;52.240;20.902;2023-09-18T07:58:48;12.40;;;7.80;;
34892;SDS011;21106;52.240;20.902;2023-09-18T08:04:14;9.70;;;6.80;;
34892;SDS011;21106;52.240;20.902;2023-09-18T08:09:41;12.30;;;7.90;;
34892;SDS011;21106;52.240;20.902;2023-09-18T08:15:08;12.20;;;7.30;;
34892;SDS011;21106;52.240;20.902;2023-09-18T08:20:39;45.30;;;27.90;;
34892;SDS011;21106;52.240;20.902;2023-09-18T08:26:06;25.40;;;16.90;;
34892;SDS011;21106;52.240;20.902;2023-09-18T08:31:33;23.90;;;12.00;;
34892;SDS011;21106;52.240;20.902;2023-09-18T08:37:00;10.20;;;7.80;;
34892;SDS011;21106;52.240;20.902;2023-09-18T08:42:30;16.30;;;9.70;;
34892;SDS011;21106;52.240;20.902;2023-09-18T08:47:58;17.40;;;9.30;;
34892;SDS011;21106;52.240;20.902;2023-09-18T08:53:25;8.90;;;7.20;;
34892;SDS011;21106;52.240;20.902;2023-09-18T08:58:52;14.10;;;7.40;;
34892;SDS011;21106;52.240;20.902;2023-09-18T09:04:19;12.00;;;6.90;;
34892;SDS011;21106;52.240;20.902;2023-09-18T09:09:46;9.50;;;6.50;;
34892;SDS011;21106;52.240;20.902;2023-09-18T09:15:13;10.50;;;7.10;;
34892;SDS011;21106;52.240;20.902;2023-09-18T09:20:40;9.20;;;6.20;;
34892;SDS011;21106;52.240;20.902;2023-09-18T09:26:14;8.20;;;5.60;;
34892;SDS011;21106;52.240;20.902;2023-09-18T09:31:42;7.30;;;5.20;;
34892;SDS011;21106;52.240;20.902;2023-09-18T09:37:09;7.20;;;4.80;;
34892;SDS011;21106;52.240;20.902;2023-09-18T09:42:40;6.70;;;5.40;;
34892;SDS011;21106;52.240;20.902;2023-09-18T09:48:07;8.10;;;4.90;;
34892;SDS011;21106;52.240;20.902;2023-09-18T09:53:46;9.90;;;4.70;;
34892;SDS011;21106;52.240;20.902;2023-09-18T09:59:14;5.80;;;4.40;;
34892;SDS011;21106;52.240;20.902;2023-09-18T10:04:41;43.20;;;7.80;;
34892;SDS011;21106;52.240;20.902;2023-09-18T10:10:10;5.60;;;4.00;;
34892;SDS011;21106;52.240;20.902;2023-09-18T10:15:37;32.60;;;9.70;;
34892;SDS011;21106;52.240;20.902;2023-09-18T10:26:35;9.50;;;4.60;;
34892;SDS011;21106;52.240;20.902;2023-09-18T10:32:09;6.00;;;4.20;;
34892;SDS011;21106;52.240;20.902;2023-09-18T10:37:36;6.90;;;4.00;;
34892;SDS011;21106;52.240;20.902;2023-09-18T10:43:04;5.40;;;4.30;;
34892;SDS011;21106;52.240;20.902;2023-09-18T10:48:31;5.40;;;3.50;;
34892;SDS011;21106;52.240;20.902;2023-09-18T10:53:58;3.40;;;3.10;;
34892;SDS011;21106;52.240;20.902;2023-09-18T10:59:24;5.20;;;3.80;;
34892;SDS011;21106;52.240;20.902;2023-09-18T11:04:51;5.60;;;4.10;;
34892;SDS011;21106;52.240;20.902;2023-09-18T11:10:25;5.20;;;3.90;;
34892;SDS011;21106;52.240;20.902;2023-09-18T11:15:53;6.00;;;3.80;;
34892;SDS011;21106;52.240;20.902;2023-09-18T11:21:26;5.10;;;3.70;;
34892;SDS011;21106;52.240;20.902;2023-09-18T11:26:53;7.00;;;4.00;;
34892;SDS011;21106;52.240;20.902;2023-09-18T11:32:37;9.80;;;4.20;;
34892;SDS011;21106;52.240;20.902;2023-09-18T11:38:05;5.50;;;4.70;;
34892;SDS011;21106;52.240;20.902;2023-09-18T11:43:32;7.70;;;5.40;;
34892;SDS011;21106;52.240;20.902;2023-09-18T11:49:01;10.80;;;5.70;;
34892;SDS011;21106;52.240;20.902;2023-09-18T11:54:32;10.20;;;5.40;;
34892;SDS011;21106;52.240;20.902;2023-09-18T12:00:00;5.30;;;4.40;;
34892;SDS011;21106;52.240;20.902;2023-09-18T12:05:38;5.80;;;4.80;;
34892;SDS011;21106;52.240;20.902;2023-09-18T12:11:05;6.60;;;5.00;;
34892;SDS011;21106;52.240;20.902;2023-09-18T12:16:37;7.90;;;5.20;;
34892;SDS011;21106;52.240;20.902;2023-09-18T12:22:05;6.30;;;5.60;;
34892;SDS011;21106;52.240;20.902;2023-09-18T12:27:31;6.30;;;5.50;;
34892;SDS011;21106;52.240;20.902;2023-09-18T12:32:58;6.50;;;5.90;;
34892;SDS011;21106;52.240;20.902;2023-09-18T12:38:27;9.10;;;5.60;;
34892;SDS011;21106;52.240;20.902;2023-09-18T12:43:54;7.80;;;5.60;;
34892;SDS011;21106;52.240;20.902;2023-09-18T12:49:21;6.60;;;5.70;;
34892;SDS011;21106;52.240;20.902;2023-09-18T12:54:50;7.20;;;5.70;;
34892;SDS011;21106;52.240;20.902;2023-09-18T13:00:20;8.00;;;5.50;;
34892;SDS011;21106;52.240;20.902;2023-09-18T13:05:49;12.10;;;5.80;;
34892;SDS011;21106;52.240;20.902;2023-09-18T13:11:19;15.10;;;6.50;;
34892;SDS011;21106;52.240;20.902;2023-09-18T13:16:45;7.00;;;5.90;;
34892;SDS011;21106;52.240;20.902;2023-09-18T13:22:21;10.90;;;6.00;;
34892;SDS011;21106;52.240;20.902;2023-09-18T13:27:48;14.30;;;6.20;;
34892;SDS011;21106;52.240;20.902;2023-09-18T13:33:15;10.00;;;6.20;;
34892;SDS011;21106;52.240;20.902;2023-09-18T13:38:42;6.90;;;5.90;;
34892;SDS011;21106;52.240;20.902;2023-09-18T13:44:11;7.60;;;5.70;;
34892;SDS011;21106;52.240;20.902;2023-09-18T13:49:37;6.50;;;5.90;;
34892;SDS011;21106;52.240;20.902;2023-09-18T13:55:04;8.80;;;6.40;;
34892;SDS011;21106;52.240;20.902;2023-09-18T14:00:35;9.90;;;5.80;;
34892;SDS011;21106;52.240;20.902;2023-09-18T14:06:02;6.10;;;5.10;;
34892;SDS011;21106;52.240;20.902;2023-09-18T14:11:29;7.50;;;6.20;;
34892;SDS011;21106;52.240;20.902;2023-09-18T14:16:55;10.40;;;6.10;;
34892;SDS011;21106;52.240;20.902;2023-09-18T14:22:23;7.10;;;5.70;;
34892;SDS011;21106;52.240;20.902;2023-09-18T14:27:50;8.20;;;5.50;;
34892;SDS011;21106;52.240;20.902;2023-09-18T14:33:16;7.30;;;5.00;;
34892;SDS011;21106;52.240;20.902;2023-09-18T14:38:43;7.20;;;4.70;;
34892;SDS011;21106;52.240;20.902;2023-09-18T14:44:10;9.80;;;5.00;;
34892;SDS011;21106;52.240;20.902;2023-09-18T14:49:36;10.10;;;5.20;;
34892;SDS011;21106;52.240;20.902;2023-09-18T14:55:03;9.90;;;5.00;;
34892;SDS011;21106;52.240;20.902;2023-09-18T15:00:30;12.90;;;5.00;;
34892;SDS011;21106;52.240;20.902;2023-09-18T15:05:56;6.80;;;5.10;;
34892;SDS011;21106;52.240;20.902;2023-09-18T15:11:23;9.80;;;5.20;;
34892;SDS011;21106;52.240;20.902;2023-09-18T15:16:49;7.70;;;4.80;;
34892;SDS011;21106;52.240;20.902;2023-09-18T15:22:16;8.00;;;4.90;;
34892;SDS011;21106;52.240;20.902;2023-09-18T15:27:43;8.00;;;5.10;;
34892;SDS011;21106;52.240;20.902;2023-09-18T15:33:09;15.30;;;5.50;;
34892;SDS011;21106;52.240;20.902;2023-09-18T15:38:36;6.30;;;5.00;;
34892;SDS011;21106;52.240;20.902;2023-09-18T15:44:02;6.50;;;5.10;;
34892;SDS011;21106;52.240;20.902;2023-09-18T15:49:29;9.90;;;5.90;;
34892;SDS011;21106;52.240;20.902;2023-09-18T15:54:55;10.60;;;5.70;;
34892;SDS011;21106;52.240;20.902;2023-09-18T16:00:22;7.70;;;5.90;;
34892;SDS011;21106;52.240;20.902;2023-09-18T16:05:49;14.40;;;6.60;;
34892;SDS011;21106;52.240;20.902;2023-09-18T16:11:18;7.60;;;6.60;;
34892;SDS011;21106;52.240;20.902;2023-09-18T16:16:44;9.10;;;6.80;;
34892;SDS011;21106;52.240;20.902;2023-09-18T16:22:11;12.10;;;7.10;;
34892;SDS011;21106;52.240;20.902;2023-09-18T16:27:38;11.90;;;7.80;;
34892;SDS011;21106;52.240;20.902;2023-09-18T16:33:04;16.60;;;7.80;;
34892;SDS011;21106;52.240;20.902;2023-09-18T16:38:31;12.80;;;7.70;;
34892;SDS011;21106;52.240;20.902;2023-09-18T16:43:57;13.10;;;8.50;;
34892;SDS011;21106;52.240;20.902;2023-09-18T16:49:24;12.50;;;7.90;;
34892;SDS011;21106;52.240;20.902;2023-09-18T16:54:50;13.70;;;7.70;;
34892;SDS011;21106;52.240;20.902;2023-09-18T17:00:17;9.20;;;7.80;;
34892;SDS011;21106;52.240;20.902;2023-09-18T17:05:44;11.00;;;7.80;;
34892;SDS011;21106;52.240;20.902;2023-09-18T17:11:11;11.60;;;8.00;;
34892;SDS011;21106;52.240;20.902;2023-09-18T17:16:38;9.30;;;7.40;;
34892;SDS011;21106;52.240;20.902;2023-09-18T17:22:04;10.40;;;7.90;;
34892;SDS011;21106;52.240;20.902;2023-09-18T17:27:31;9.90;;;8.10;;
34892;SDS011;21106;52.240;20.902;2023-09-18T17:33:01;14.10;;;8.30;;
34892;SDS011;21106;52.240;20.902;2023-09-18T17:38:27;12.20;;;8.00;;
34892;SDS011;21106;52.240;20.902;2023-09-18T17:43:53;13.10;;;8.20;;
34892;SDS011;21106;52.240;20.902;2023-09-18T17:49:20;11.70;;;8.60;;
34892;SDS011;21106;52.240;20.902;2023-09-18T17:54:50;15.60;;;9.70;;
34892;SDS011;21106;52.240;20.902;2023-09-18T18:00:18;14.40;;;9.30;;
34892;SDS011;21106;52.240;20.902;2023-09-18T18:05:45;16.30;;;9.80;;
34892;SDS011;21106;52.240;20.902;2023-09-18T18:11:11;12.40;;;9.10;;
34892;SDS011;21106;52.240;20.902;2023-09-18T18:16:39;13.20;;;8.80;;
34892;SDS011;21106;52.240;20.902;2023-09-18T18:22:05;15.00;;;8.90;;
34892;SDS011;21106;52.240;20.902;2023-09-18T18:27:32;12.60;;;9.00;;
34892;SDS011;21106;52.240;20.902;2023-09-18T18:33:00;14.30;;;9.90;;
34892;SDS011;21106;52.240;20.902;2023-09-18T18:38:27;16.70;;;8.80;;
34892;SDS011;21106;52.240;20.902;2023-09-18T18:43:54;15.00;;;9.30;;
34892;SDS011;21106;52.240;20.902;2023-09-18T18:49:20;12.40;;;9.20;;
34892;SDS011;21106;52.240;20.902;2023-09-18T18:54:47;12.30;;;8.60;;
34892;SDS011;21106;52.240;20.902;2023-09-18T19:00:14;11.00;;;8.70;;
34892;SDS011;21106;52.240;20.902;2023-09-18T19:05:41;23.70;;;9.60;;
34892;SDS011;21106;52.240;20.902;2023-09-18T19:11:12;16.50;;;8.90;;
34892;SDS011;21106;52.240;20.902;2023-09-18T19:16:39;11.50;;;9.10;;
34892;SDS011;21106;52.240;20.902;2023-09-18T19:22:06;14.00;;;8.90;;
34892;SDS011;21106;52.240;20.902;2023-09-18T19:27:33;12.70;;;9.10;;
34892;SDS011;21106;52.240;20.902;2023-09-18T19:33:03;10.90;;;8.60;;
34892;SDS011;21106;52.240;20.902;2023-09-18T19:38:30;11.00;;;8.80;;
34892;SDS011;21106;52.240;20.902;2023-09-18T19:43:57;12.10;;;8.60;;
34892;SDS011;21106;52.240;20.902;2023-09-18T19:49:23;16.80;;;8.90;;
34892;SDS011;21106;52.240;20.902;2023-09-18T19:54:50;11.60;;;8.60;;
34892;SDS011;21106;52.240;20.902;2023-09-18T20:00:17;12.90;;;8.10;;
34892;SDS011;21106;52.240;20.902;2023-09-18T20:05:43;16.00;;;8.40;;
34892;SDS011;21106;52.240;20.902;2023-09-18T20:11:10;15.40;;;8.70;;
34892;SDS011;21106;52.240;20.902;2023-09-18T20:16:38;14.20;;;8.20;;
34892;SDS011;21106;52.240;20.902;2023-09-18T20:22:04;10.70;;;7.50;;
34892;SDS011;21106;52.240;20.902;2023-09-18T20:27:31;13.90;;;8.20;;
34892;SDS011;21106;52.240;20.902;2023-09-18T20:32:59;13.60;;;8.20;;
34892;SDS011;21106;52.240;20.902;2023-09-18T20:38:29;11.00;;;8.40;;
34892;SDS011;21106;52.240;20.902;2023-09-18T20:43:57;10.50;;;8.90;;
34892;SDS011;21106;52.240;20.902;2023-09-18T20:49:24;12.80;;;7.80;;
34892;SDS011;21106;52.240;20.902;2023-09-18T20:54:51;13.90;;;7.90;;
34892;SDS011;21106;52.240;20.902;2023-09-18T21:00:18;12.10;;;8.20;;
34892;SDS011;21106;52.240;20.902;2023-09-18T21:05:45;13.80;;;8.10;;
34892;SDS011;21106;52.240;20.902;2023-09-18T21:11:16;9.80;;;7.90;;
34892;SDS011;21106;52.240;20.902;2023-09-18T21:16:43;11.00;;;8.10;;
34892;SDS011;21106;52.240;20.902;2023-09-18T21:22:11;12.60;;;7.50;;
34892;SDS011;21106;52.240;20.902;2023-09-18T21:27:37;20.50;;;7.20;;
34892;SDS011;21106;52.240;20.902;2023-09-18T21:33:04;12.50;;;8.00;;
34892;SDS011;21106;52.240;20.902;2023-09-18T21:38:31;15.80;;;8.30;;
34892;SDS011;21106;52.240;20.902;2023-09-18T21:43:58;13.10;;;7.40;;
34892;SDS011;21106;52.240;20.902;2023-09-18T21:49:25;15.20;;;8.10;;
34892;SDS011;21106;52.240;20.902;2023-09-18T21:54:52;10.00;;;7.90;;
34892;SDS011;21106;52.240;20.902;2023-09-18T22:00:18;11.20;;;8.30;;
34892;SDS011;21106;52.240;20.902;2023-09-18T22:05:54;10.20;;;7.70;;
34892;SDS011;21106;52.240;20.902;2023-09-18T22:11:21;10.60;;;8.10;;
34892;SDS011;21106;52.240;20.902;2023-09-18T22:16:48;11.80;;;8.10;;
34892;SDS011;21106;52.240;20.902;2023-09-18T22:22:15;11.80;;;8.40;;
34892;SDS011;21106;52.240;20.902;2023-09-18T22:27:41;8.80;;;7.60;;
34892;SDS011;21106;52.240;20.902;2023-09-18T22:33:08;12.00;;;8.30;;
34892;SDS011;21106;52.240;20.902;2023-09-18T22:55:39;10.80;;;8.30;;
34892;SDS011;21106;52.240;20.902;2023-09-18T23:01:06;11.10;;;7.80;;
34892;SDS011;21106;52.240;20.902;2023-09-18T23:06:33;13.60;;;8.10;;
34892;SDS011;21106;52.240;20.902;2023-09-18T23:11:59;13.00;;;8.50;;
34892;SDS011;21106;52.240;20.902;2023-09-18T23:17:26;15.10;;;8.80;;
34892;SDS011;21106;52.240;20.902;2023-09-18T23:22:53;11.80;;;8.60;;
34892;SDS011;21106;52.240;20.902;2023-09-18T23:28:23;11.40;;;8.90;;
34892;SDS011;21106;52.240;20.902;2023-09-18T23:33:49;12.30;;;8.30;;
34892;SDS011;21106;52.240;20.902;2023-09-18T23:39:16;10.30;;;8.10;;
34892;SDS011;21106;52.240;20.902;2023-09-18T23:44:45;10.30;;;7.80;;
34892;SDS011;21106;52.240;20.902;2023-09-18T23:50:15;13.60;;;8.40;;
34892;SDS011;21106;52.240;20.902;2023-09-18T23:55:42;11.50;;;8.40;;
